Time;durP1;ratioP1;P1;durP2;ratioP2;P2;SDS_P1;SDS_P2;PMS_P1;PMS_P2;Temp;Humidity;BMP_temperature;BMP_pressure;BME280_temperature;BME280_humidity;BME280_pressure;Samples;Min_cycle;Max_cycle;Signal;HPM_P1;HPM_P2
2023/08/09 00:01:02;;;;;;;24.80;22.90;;;16.40;99.90;;;;;;4969194;28;20133;-65
2023/08/09 00:03:27;;;;;;;25.63;23.42;;;16.50;99.90;;;;;;4971491;28;20043;-66
2023/08/09 00:05:53;;;;;;;22.95;21.20;;;16.50;99.90;;;;;;4970980;28;20114;-66
2023/08/09 00:08:19;;;;;;;19.27;17.77;;;16.50;99.90;;;;;;4970920;28;20054;-65
2023/08/09 00:10:44;;;;;;;23.23;21.42;;;16.50;99.90;;;;;;4985620;28;20043;-65
2023/08/09 00:13:10;;;;;;;22.27;20.63;;;16.60;99.90;;;;;;4970860;28;20081;-66
2023/08/09 00:15:35;;;;;;;20.38;18.88;;;16.50;99.90;;;;;;4971181;28;20041;-66
2023/08/09 00:18:01;;;;;;;26.88;24.67;;;16.50;99.90;;;;;;4968802;28;20051;-64
2023/08/09 00:20:27;;;;;;;17.55;16.27;;;16.50;99.90;;;;;;4970136;28;20097;-65
2023/08/09 00:22:52;;;;;;;18.30;16.80;;;16.60;99.90;;;;;;4969952;28;20039;-65
2023/08/09 00:25:18;;;;;;;20.27;18.88;;;16.60;99.90;;;;;;4950410;29;20047;-65
2023/08/09 00:27:43;;;;;;;21.13;19.55;;;16.80;99.90;;;;;;4951796;28;20509;-65
2023/08/09 00:30:13;;;;;;;26.90;24.90;;;16.60;99.90;;;;;;4966307;28;20382;-65
2023/08/09 00:32:40;;;;;;;21.25;19.60;;;16.60;99.90;;;;;;4970278;28;20082;-65
2023/08/09 00:35:06;;;;;;;18.20;16.80;;;16.60;99.90;;;;;;4970059;28;20386;-64
2023/08/09 00:37:32;;;;;;;16.35;15.00;;;16.60;99.90;;;;;;4970709;28;20065;-61
2023/08/09 00:39:58;;;;;;;19.45;17.73;;;16.60;99.90;;;;;;4970182;28;20051;-62
2023/08/09 00:42:24;;;;;;;20.42;18.65;;;16.60;99.90;;;;;;4955276;28;20035;-61
2023/08/09 00:44:50;;;;;;;28.23;26.30;;;16.70;99.90;;;;;;4951956;29;20118;-61
2023/08/09 00:47:18;;;;;;;32.85;30.45;;;16.60;99.90;;;;;;4963723;28;20038;-61
2023/08/09 00:49:45;;;;;;;25.20;23.20;;;16.60;99.90;;;;;;4970397;28;20039;-61
2023/08/09 00:52:11;;;;;;;29.17;27.25;;;16.60;99.90;;;;;;4969256;28;20051;-62
2023/08/09 00:54:40;;;;;;;16.52;15.13;;;16.50;99.90;;;;;;4971206;28;20082;-61
2023/08/09 00:57:06;;;;;;;18.70;17.20;;;16.50;99.90;;;;;;4970177;28;20437;-61
2023/08/09 00:59:32;;;;;;;21.38;19.67;;;16.60;99.90;;;;;;4970202;28;20043;-61
2023/08/09 01:01:58;;;;;;;22.17;20.17;;;16.50;99.90;;;;;;4966351;28;20105;-61
2023/08/09 01:04:23;;;;;;;33.20;30.65;;;16.50;99.90;;;;;;4970508;28;20093;-61
2023/08/09 01:07:14;;;;;;;27.83;25.73;;;16.50;99.90;;;;;;4970805;28;20050;-62
2023/08/09 01:09:48;;;;;;;21.30;19.65;;;16.40;99.90;;;;;;4959506;28;20500;-62
2023/08/09 01:12:22;;;;;;;16.60;15.30;;;16.50;99.90;;;;;;4974032;28;20425;-61
2023/08/09 01:14:52;;;;;;;13.13;12.02;;;16.60;99.90;;;;;;4974157;28;20047;-61
2023/08/09 01:17:19;;;;;;;15.82;14.63;;;16.50;99.90;;;;;;4965307;28;20081;-63
2023/08/09 01:19:49;;;;;;;25.38;23.45;;;16.50;99.90;;;;;;4967196;28;20039;-61
2023/08/09 01:22:17;;;;;;;28.60;26.48;;;16.50;99.90;;;;;;4968143;28;20137;-61
2023/08/09 01:24:44;;;;;;;33.67;31.23;;;16.50;99.90;;;;;;4967876;28;20405;-61
2023/08/09 01:27:10;;;;;;;27.65;25.65;;;16.50;99.90;;;;;;4968684;28;20038;-61
2023/08/09 01:29:36;;;;;;;28.40;26.27;;;16.50;99.90;;;;;;4973176;28;20085;-61
2023/08/09 01:32:02;;;;;;;22.80;21.15;;;16.50;99.90;;;;;;4974167;28;20043;-61
2023/08/09 01:34:28;;;;;;;26.27;24.20;;;16.60;99.90;;;;;;4972647;28;20106;-61
2023/08/09 01:36:57;;;;;;;22.90;21.30;;;18.20;99.90;;;;;;4973292;28;20058;-61
2023/08/09 01:39:29;;;;;;;19.10;17.27;;;16.60;99.90;;;;;;4973476;28;20109;-61
2023/08/09 01:41:56;;;;;;;12.80;11.80;;;16.60;99.90;;;;;;4972084;28;20054;-62
2023/08/09 01:44:23;;;;;;;18.52;16.73;;;16.70;99.90;;;;;;4973478;28;20039;-62
2023/08/09 01:46:49;;;;;;;15.75;14.52;;;16.80;99.90;;;;;;4956382;28;20053;-65
2023/08/09 01:49:17;;;;;;;16.20;14.90;;;16.70;99.90;;;;;;4972592;28;20034;-65
2023/08/09 01:51:43;;;;;;;12.60;11.20;;;16.70;99.90;;;;;;4972634;28;20042;-65
2023/08/09 01:54:08;;;;;;;19.75;17.92;;;16.70;99.90;;;;;;4973303;28;20129;-65
2023/08/09 01:56:35;;;;;;;17.77;16.38;;;16.60;99.90;;;;;;4970822;28;20068;-66
2023/08/09 01:59:01;;;;;;;22.23;20.52;;;16.70;99.90;;;;;;4972680;28;20077;-65
2023/08/09 02:01:27;;;;;;;22.95;21.35;;;16.70;99.90;;;;;;4972566;28;20247;-65
2023/08/09 02:03:53;;;;;;;24.17;22.42;;;16.70;99.90;;;;;;4970725;28;20061;-64
2023/08/09 02:06:19;;;;;;;30.15;27.85;;;16.60;99.90;;;;;;4973081;28;20043;-65
2023/08/09 02:08:44;;;;;;;31.35;29.00;;;16.70;99.90;;;;;;4972781;28;20049;-65
2023/08/09 02:11:10;;;;;;;21.27;19.77;;;16.60;99.90;;;;;;4972716;28;20034;-65
2023/08/09 02:13:37;;;;;;;16.23;15.02;;;16.60;99.90;;;;;;4969389;28;20043;-65
2023/08/09 02:16:05;;;;;;;23.63;21.75;;;16.60;99.90;;;;;;4972536;28;20047;-65
2023/08/09 02:18:30;;;;;;;23.05;21.27;;;16.60;99.90;;;;;;4972203;28;20420;-64
2023/08/09 02:20:58;;;;;;;27.90;25.80;;;16.50;99.90;;;;;;4971604;28;20126;-64
2023/08/09 02:23:24;;;;;;;36.97;34.17;;;16.50;99.90;;;;;;4972737;28;20057;-66
2023/08/09 02:25:52;;;;;;;37.95;34.95;;;16.80;99.90;;;;;;4969778;28;20046;-64
2023/08/09 02:28:17;;;;;;;34.13;31.73;;;16.30;99.90;;;;;;4972690;28;20050;-64
2023/08/09 02:30:43;;;;;;;23.75;21.98;;;16.30;1.00;;;;;;4971871;28;20039;-65
2023/08/09 02:33:08;;;;;;;26.65;24.70;;;16.20;1.00;;;;;;4962066;28;20074;-66
2023/08/09 02:35:53;;;;;;;22.70;20.90;;;16.30;99.90;;;;;;4987551;28;20043;-64
2023/08/09 02:38:19;;;;;;;22.88;21.17;;;16.30;99.90;;;;;;4972643;28;20054;-65
2023/08/09 02:40:45;;;;;;;24.15;22.33;;;16.30;99.90;;;;;;4972127;28;20042;-64
2023/08/09 02:43:10;;;;;;;25.15;23.35;;;16.60;99.90;;;;;;4972264;28;20396;-64
2023/08/09 02:45:37;;;;;;;23.55;21.80;;;16.30;99.90;;;;;;4972551;28;20074;-65
2023/08/09 02:48:03;;;;;;;23.40;21.60;;;16.40;99.90;;;;;;4971866;28;20125;-64
2023/08/09 02:50:29;;;;;;;23.60;21.80;;;16.40;99.90;;;;;;4971788;28;20066;-65
2023/08/09 02:52:54;;;;;;;17.27;16.08;;;16.40;99.90;;;;;;4971808;28;20038;-65
2023/08/09 02:55:20;;;;;;;20.83;19.23;;;16.40;99.90;;;;;;4971545;28;20070;-65
2023/08/09 02:57:45;;;;;;;20.30;18.80;;;16.40;99.90;;;;;;4972134;28;20440;-61
2023/08/09 03:00:15;;;;;;;18.45;16.95;;;16.50;99.90;;;;;;4972038;28;20073;-61
2023/08/09 03:02:41;;;;;;;25.23;23.25;;;16.50;99.90;;;;;;4971542;28;20042;-62
2023/08/09 03:05:08;;;;;;;32.50;30.20;;;16.60;99.90;;;;;;4962030;28;20051;-62
2023/08/09 03:07:35;;;;;;;38.88;35.47;;;16.50;99.90;;;;;;4971480;28;20081;-61
2023/08/09 03:10:03;;;;;;;41.65;38.45;;;16.50;99.90;;;;;;4971400;28;20038;-61
2023/08/09 03:12:28;;;;;;;36.65;33.70;;;16.50;1.00;;;;;;4971580;28;20081;-61
2023/08/09 03:14:54;;;;;;;35.70;32.90;;;16.50;1.00;;;;;;4972085;28;20429;-62
2023/08/09 03:17:20;;;;;;;35.88;33.13;;;16.40;1.00;;;;;;4971153;28;20041;-61
2023/08/09 03:19:46;;;;;;;40.28;36.97;;;16.50;1.00;;;;;;4971821;28;20034;-62
2023/08/09 03:22:11;;;;;;;40.42;37.13;;;16.50;1.00;;;;;;4970508;28;20053;-61
2023/08/09 03:24:38;;;;;;;40.03;36.67;;;16.40;1.00;;;;;;4971750;28;20049;-61
2023/08/09 03:27:04;;;;;;;34.67;32.08;;;16.40;1.00;;;;;;4967215;28;20508;-61
2023/08/09 03:29:29;;;;;;;29.90;27.60;;;16.40;1.00;;;;;;4965283;28;20080;-61
2023/08/09 03:31:55;;;;;;;33.35;30.85;;;16.40;1.00;;;;;;4965009;28;20535;-61
2023/08/09 03:34:20;;;;;;;38.22;35.17;;;16.40;1.00;;;;;;4971191;28;20518;-61
2023/08/09 03:36:46;;;;;;;38.00;35.25;;;16.40;1.00;;;;;;4971457;28;20473;-61
2023/08/09 03:39:11;;;;;;;41.38;38.17;;;16.30;1.00;;;;;;4970946;28;20134;-61
2023/08/09 03:41:37;;;;;;;38.30;35.30;;;16.30;1.00;;;;;;4970937;28;20038;-61
2023/08/09 03:44:03;;;;;;;39.97;36.67;;;16.30;1.00;;;;;;4971267;28;20038;-61
2023/08/09 03:46:29;;;;;;;38.13;35.13;;;16.30;1.00;;;;;;4971705;28;20038;-61
2023/08/09 03:48:54;;;;;;;40.75;37.28;;;16.30;1.00;;;;;;4970376;28;20030;-61
2023/08/09 03:51:20;;;;;;;40.88;37.35;;;16.20;1.00;;;;;;4969528;28;20070;-61
2023/08/09 03:53:45;;;;;;;42.15;38.55;;;16.20;1.00;;;;;;4970061;28;20094;-62
2023/08/09 03:56:11;;;;;;;38.67;35.70;;;16.20;1.00;;;;;;4971332;28;20489;-61
2023/08/09 03:58:37;;;;;;;40.40;37.03;;;16.20;1.00;;;;;;4970346;28;20766;-62
2023/08/09 04:01:03;;;;;;;37.13;33.92;;;16.20;1.00;;;;;;4984722;28;20133;-61
2023/08/09 04:03:28;;;;;;;34.55;31.65;;;16.30;1.00;;;;;;4971000;28;20038;-62
2023/08/09 04:05:55;;;;;;;40.17;37.00;;;16.30;1.00;;;;;;4971078;28;20042;-61
2023/08/09 04:08:21;;;;;;;39.35;36.10;;;16.40;1.00;;;;;;4969506;28;20038;-62
2023/08/09 04:10:47;;;;;;;38.92;35.55;;;16.40;1.00;;;;;;4970676;28;20064;-62
2023/08/09 04:13:13;;;;;;;40.17;36.78;;;16.50;1.00;;;;;;4971337;28;20546;-61
2023/08/09 04:15:39;;;;;;;40.50;37.10;;;16.50;1.00;;;;;;4971214;28;20042;-61
2023/08/09 04:18:05;;;;;;;40.65;37.15;;;16.50;1.00;;;;;;4970974;28;20047;-61
2023/08/09 04:20:31;;;;;;;42.33;38.47;;;16.40;8.20;;;;;;4970735;28;20541;-61
2023/08/09 04:23:00;;;;;;;41.75;37.58;;;16.50;28.40;;;;;;4970773;28;20050;-61
2023/08/09 04:25:25;;;;;;;39.75;36.35;;;16.40;71.70;;;;;;4970600;28;20081;-61
2023/08/09 04:27:53;;;;;;;40.50;37.00;;;16.50;98.40;;;;;;4969364;28;20401;-61
2023/08/09 04:30:18;;;;;;;40.20;36.55;;;16.40;99.90;;;;;;4969972;28;20481;-61
2023/08/09 04:32:44;;;;;;;41.58;37.72;;;16.50;99.90;;;;;;4970937;28;20049;-61
2023/08/09 04:35:10;;;;;;;41.60;37.67;;;16.50;99.90;;;;;;4964350;28;20034;-61
2023/08/09 04:37:35;;;;;;;42.53;38.05;;;16.50;99.90;;;;;;4969166;28;20155;-61
2023/08/09 04:40:01;;;;;;;40.92;37.13;;;16.50;99.90;;;;;;4951683;28;20509;-61
2023/08/09 04:42:27;;;;;;;40.95;37.00;;;16.60;99.90;;;;;;4953088;28;20050;-62
2023/08/09 04:44:53;;;;;;;41.10;37.20;;;16.60;99.90;;;;;;4956479;28;20035;-61
2023/08/09 04:47:18;;;;;;;39.15;35.60;;;16.60;99.90;;;;;;4967755;28;20075;-61
2023/08/09 04:49:45;;;;;;;38.30;34.92;;;16.60;99.90;;;;;;4974250;28;20030;-61
2023/08/09 04:52:10;;;;;;;38.38;34.80;;;16.70;99.90;;;;;;4973205;28;20058;-62
2023/08/09 04:54:36;;;;;;;37.78;34.40;;;16.70;99.90;;;;;;4973219;28;20405;-62
2023/08/09 04:57:01;;;;;;;37.75;34.25;;;16.80;99.90;;;;;;4974301;28;20042;-61
2023/08/09 04:59:27;;;;;;;39.65;36.00;;;16.90;99.90;;;;;;4961091;28;20057;-62
2023/08/09 05:01:52;;;;;;;37.35;34.00;;;16.80;99.90;;;;;;4971300;28;20046;-61
2023/08/09 05:04:18;;;;;;;38.75;34.67;;;16.90;99.90;;;;;;4967302;28;20081;-61
2023/08/09 05:06:43;;;;;;;38.55;34.78;;;17.00;99.90;;;;;;4966432;28;20034;-62
2023/08/09 05:09:09;;;;;;;39.22;35.40;;;16.90;99.90;;;;;;4965639;28;20039;-61
2023/08/09 05:11:35;;;;;;;37.97;34.22;;;17.00;99.90;;;;;;4966717;28;20038;-61
2023/08/09 05:14:00;;;;;;;39.20;35.30;;;17.00;99.90;;;;;;4972316;28;20433;-62
2023/08/09 05:16:26;;;;;;;38.10;34.58;;;17.10;99.90;;;;;;4971743;28;20039;-66
2023/08/09 05:18:52;;;;;;;36.75;33.42;;;17.00;99.90;;;;;;4973563;28;20106;-64
2023/08/09 05:21:19;;;;;;;37.22;33.92;;;17.10;99.90;;;;;;4970200;28;20046;-65
2023/08/09 05:23:45;;;;;;;36.30;33.00;;;17.20;99.90;;;;;;4968704;28;20035;-66
2023/08/09 05:26:10;;;;;;;36.88;33.38;;;17.30;99.90;;;;;;4972514;28;20768;-65
2023/08/09 05:28:36;;;;;;;36.72;33.40;;;17.30;99.90;;;;;;4971284;28;20098;-65
2023/08/09 05:31:01;;;;;;;35.75;32.42;;;17.40;99.90;;;;;;4971580;28;20050;-65
2023/08/09 05:33:27;;;;;;;37.45;33.85;;;17.80;99.90;;;;;;4972147;28;20070;-65
2023/08/09 05:35:52;;;;;;;36.65;33.35;;;17.40;99.90;;;;;;4973447;28;20046;-64
2023/08/09 05:38:18;;;;;;;39.17;35.25;;;17.50;99.90;;;;;;4970170;28;20059;-66
2023/08/09 05:40:43;;;;;;;37.50;33.95;;;17.50;99.90;;;;;;4973326;28;20042;-65
2023/08/09 05:43:09;;;;;;;38.03;34.50;;;17.50;99.90;;;;;;4971876;28;20054;-65
2023/08/09 05:45:35;;;;;;;36.97;33.88;;;17.60;99.90;;;;;;4969266;28;20042;-66
2023/08/09 05:48:00;;;;;;;36.25;33.10;;;17.70;99.90;;;;;;4970667;28;20452;-66
2023/08/09 05:50:26;;;;;;;37.30;33.80;;;17.70;99.90;;;;;;4971957;28;21287;-65
2023/08/09 05:52:51;;;;;;;36.17;32.92;;;17.80;99.90;;;;;;4973455;28;20440;-65
2023/08/09 05:55:17;;;;;;;36.75;33.38;;;17.80;95.30;;;;;;4987785;28;20093;-65
2023/08/09 05:57:43;;;;;;;39.70;35.35;;;17.90;88.20;;;;;;4972107;28;20051;-63
2023/08/09 06:00:15;;;;;;;35.45;32.45;;;17.90;76.20;;;;;;4969195;28;20043;-65
2023/08/09 06:02:44;;;;;;;36.55;33.15;;;18.00;47.10;;;;;;4967954;28;20732;-66
2023/08/09 06:05:23;;;;;;;37.13;33.88;;;18.00;26.40;;;;;;4965920;28;20046;-66
2023/08/09 06:07:49;;;;;;;37.10;33.80;;;18.00;8.20;;;;;;4970790;28;20512;-64
2023/08/09 06:10:14;;;;;;;35.67;32.58;;;18.10;1.00;;;;;;4969109;28;20121;-65
2023/08/09 06:12:40;;;;;;;38.83;35.22;;;18.00;1.00;;;;;;4970581;28;20089;-65
2023/08/09 06:15:06;;;;;;;37.42;33.90;;;18.10;1.00;;;;;;4970012;28;20042;-65
2023/08/09 06:17:32;;;;;;;37.15;33.88;;;18.20;1.00;;;;;;4964919;28;20035;-64
2023/08/09 06:19:58;;;;;;;40.40;36.45;;;18.30;1.00;;;;;;4959445;28;20047;-65
2023/08/09 06:22:24;;;;;;;37.92;34.55;;;18.30;1.00;;;;;;4964721;28;20053;-63
2023/08/09 06:24:50;;;;;;;38.85;35.42;;;18.40;1.00;;;;;;4965075;28;20035;-65
2023/08/09 06:27:15;;;;;;;39.58;36.15;;;18.50;1.00;;;;;;4965467;28;20043;-61
2023/08/09 06:29:41;;;;;;;41.78;38.17;;;18.50;1.00;;;;;;4968107;28;20046;-61
2023/08/09 06:32:06;;;;;;;42.70;38.53;;;18.60;1.00;;;;;;4966429;28;20046;-62
2023/08/09 06:34:32;;;;;;;41.38;37.47;;;18.60;1.00;;;;;;4965594;28;20121;-61
2023/08/09 06:36:58;;;;;;;39.08;35.38;;;18.60;1.00;;;;;;4967967;28;20065;-62
2023/08/09 06:39:26;;;;;;;40.35;36.58;;;18.60;1.00;;;;;;4960766;28;20055;-61
2023/08/09 06:41:52;;;;;;;41.00;37.10;;;18.70;1.00;;;;;;4954767;28;20186;-61
2023/08/09 06:44:17;;;;;;;39.90;36.45;;;18.70;1.00;;;;;;4969939;28;20074;-61
2023/08/09 06:46:44;;;;;;;41.70;37.72;;;18.80;1.00;;;;;;4985250;28;20105;-61
2023/08/09 06:49:09;;;;;;;41.65;37.72;;;18.70;1.00;;;;;;4970319;28;20090;-61
2023/08/09 06:51:35;;;;;;;40.30;36.85;;;18.60;8.30;;;;;;4965653;28;20095;-61
2023/08/09 06:54:00;;;;;;;40.63;36.97;;;18.70;16.70;;;;;;4967220;28;20440;-61
2023/08/09 06:56:26;;;;;;;40.50;36.90;;;18.80;1.00;;;;;;4969626;28;20054;-62
2023/08/09 06:58:52;;;;;;;40.35;37.08;;;18.70;1.00;;;;;;4964036;28;20050;-61
2023/08/09 07:01:17;;;;;;;43.50;39.60;;;18.70;1.00;;;;;;4969236;28;20043;-61
2023/08/09 07:03:43;;;;;;;40.78;37.47;;;18.80;1.00;;;;;;4963103;28;20117;-61
2023/08/09 07:06:09;;;;;;;40.60;37.40;;;18.80;1.00;;;;;;4968694;28;20277;-61
2023/08/09 07:08:34;;;;;;;42.33;38.72;;;18.80;1.00;;;;;;4963175;28;20494;-61
2023/08/09 07:11:00;;;;;;;43.90;40.20;;;18.80;1.00;;;;;;4964949;28;20303;-62
2023/08/09 07:13:26;;;;;;;45.13;41.42;;;18.90;1.00;;;;;;4960416;28;20047;-61
2023/08/09 07:15:51;;;;;;;45.78;41.67;;;18.90;1.00;;;;;;4960672;28;20039;-61
2023/08/09 07:18:17;;;;;;;42.80;39.20;;;19.00;1.00;;;;;;4959389;28;20066;-61
2023/08/09 07:20:42;;;;;;;47.33;43.22;;;19.20;1.00;;;;;;4962093;28;20035;-61
2023/08/09 07:23:08;;;;;;;51.17;46.85;;;19.40;1.00;;;;;;4958943;28;20429;-61
2023/08/09 07:25:34;;;;;;;51.45;46.95;;;19.60;1.00;;;;;;4967564;28;20405;-61
2023/08/09 07:27:59;;;;;;;54.22;49.63;;;19.80;1.00;;;;;;4964935;28;20146;-61
2023/08/09 07:30:25;;;;;;;52.30;47.97;;;20.10;1.00;;;;;;4958688;28;20043;-61
2023/08/09 07:32:50;;;;;;;48.90;45.13;;;20.30;1.00;;;;;;4961105;28;20039;-62
2023/08/09 07:35:17;;;;;;;55.67;51.10;;;20.50;1.00;;;;;;4958955;28;20065;-62
2023/08/09 07:37:45;;;;;;;49.03;45.42;;;20.60;99.90;;;;;;4956573;28;20897;-62
2023/08/09 07:40:12;;;;;;;50.72;47.05;;;20.70;99.90;;;;;;4951246;28;20051;-61
2023/08/09 07:42:38;;;;;;;56.72;51.97;;;20.60;99.90;;;;;;4958833;28;20177;-61
2023/08/09 07:45:04;;;;;;;58.90;54.40;;;20.60;99.90;;;;;;4956758;28;20047;-61
2023/08/09 07:47:30;;;;;;;57.55;53.35;;;20.60;99.90;;;;;;4961664;28;20031;-61
2023/08/09 07:49:56;;;;;;;50.92;47.28;;;20.50;99.90;;;;;;4962719;28;20521;-61
2023/08/09 07:52:21;;;;;;;55.72;51.53;;;20.30;99.90;;;;;;4957924;28;20039;-61
2023/08/09 07:54:47;;;;;;;56.65;52.45;;;20.30;99.90;;;;;;4960490;28;20050;-61
2023/08/09 07:57:13;;;;;;;57.15;52.80;;;20.50;99.90;;;;;;4962551;28;20456;-61
2023/08/09 07:59:38;;;;;;;52.88;49.08;;;20.60;99.90;;;;;;4963078;28;20051;-61
2023/08/09 08:02:04;;;;;;;56.83;52.72;;;20.60;99.90;;;;;;4956681;28;20129;-62
2023/08/09 08:04:30;;;;;;;54.25;50.45;;;20.70;99.90;;;;;;4957731;28;20067;-61
2023/08/09 08:06:56;;;;;;;53.22;49.53;;;20.70;99.90;;;;;;4975784;28;20146;-61
2023/08/09 08:09:23;;;;;;;54.90;51.08;;;20.90;99.90;;;;;;4964234;28;20137;-61
2023/08/09 08:11:49;;;;;;;46.92;43.72;;;21.00;99.90;;;;;;4953662;28;20054;-61
2023/08/09 08:14:14;;;;;;;52.63;48.72;;;21.00;99.90;;;;;;4959784;28;20046;-62
2023/08/09 08:16:40;;;;;;;51.25;47.65;;;21.30;99.90;;;;;;4961367;28;20051;-62
2023/08/09 08:19:06;;;;;;;53.67;49.88;;;21.40;99.90;;;;;;4965017;28;20053;-62
2023/08/09 08:21:31;;;;;;;52.13;48.63;;;21.50;99.90;;;;;;4955694;28;20047;-62
2023/08/09 08:23:57;;;;;;;44.25;41.28;;;21.40;99.90;;;;;;4961161;28;20051;-61
2023/08/09 08:26:25;;;;;;;39.70;36.75;;;21.40;99.90;;;;;;4964129;28;20042;-62
2023/08/09 08:28:50;;;;;;;42.40;39.50;;;21.40;99.90;;;;;;4965546;28;20082;-62
2023/08/09 08:31:19;;;;;;;38.30;35.75;;;21.60;99.90;;;;;;4964778;28;20784;-62
2023/08/09 08:33:49;;;;;;;32.47;30.17;;;21.70;99.90;;;;;;4962007;28;20055;-61
2023/08/09 08:36:16;;;;;;;44.35;41.38;;;21.60;99.90;;;;;;4962340;28;20054;-62
2023/08/09 08:38:42;;;;;;;43.47;40.58;;;21.70;99.90;;;;;;4965041;28;20198;-62
2023/08/09 08:41:08;;;;;;;22.58;20.88;;;22.00;99.90;;;;;;4963843;28;20047;-61
2023/08/09 08:43:34;;;;;;;21.83;19.70;;;22.40;99.90;;;;;;4960484;28;20039;-61
2023/08/09 08:46:04;;;;;;;12.23;11.23;;;22.70;99.90;;;;;;4967349;28;20038;-61
2023/08/09 08:48:32;;;;;;;21.70;19.77;;;23.00;99.90;;;;;;4962451;28;20027;-62
2023/08/09 08:51:00;;;;;;;16.25;14.98;;;23.00;99.90;;;;;;4960423;28;20130;-62
2023/08/09 08:53:27;;;;;;;22.60;21.00;;;23.10;99.90;;;;;;4962830;28;20039;-62
2023/08/09 08:55:53;;;;;;;16.58;15.32;;;22.90;99.90;;;;;;4963774;28;20061;-65
2023/08/09 08:58:18;;;;;;;27.75;25.88;;;23.00;99.90;;;;;;4965401;28;20030;-62
2023/08/09 09:00:45;;;;;;;17.45;16.05;;;23.70;99.90;;;;;;4964495;28;20041;-61
2023/08/09 09:03:11;;;;;;;15.02;13.82;;;23.50;99.90;;;;;;4959816;28;20035;-61
2023/08/09 09:05:36;;;;;;;5.20;4.70;;;24.20;99.90;;;;;;4967017;28;20034;-62
2023/08/09 09:08:02;;;;;;;3.67;2.17;;;23.60;99.90;;;;;;4964613;28;20045;-62
2023/08/09 09:10:28;;;;;;;7.63;2.17;;;23.00;99.90;;;;;;4970256;28;20516;-62
2023/08/09 09:12:55;;;;;;;4.72;1.83;;;22.60;99.90;;;;;;4968447;28;20046;-61
2023/08/09 09:15:21;;;;;;;3.40;1.90;;;22.10;99.90;;;;;;4964185;28;20050;-61
2023/08/09 09:17:48;;;;;;;3.17;1.90;;;22.00;99.90;;;;;;4965507;28;20039;-61
2023/08/09 09:20:29;;;;;;;7.07;2.33;;;21.80;99.90;;;;;;4966644;28;20058;-61
2023/08/09 09:22:56;;;;;;;4.50;2.10;;;21.50;99.90;;;;;;4964873;28;20044;-61
2023/08/09 09:25:23;;;;;;;5.72;2.40;;;21.20;99.90;;;;;;4964176;28;20186;-61
2023/08/09 09:27:52;;;;;;;3.45;2.35;;;21.10;99.90;;;;;;4966617;28;20496;-62
2023/08/09 09:30:19;;;;;;;9.15;4.93;;;21.10;99.90;;;;;;4964598;28;20042;-61
2023/08/09 09:32:51;;;;;;;4.90;3.72;;;21.60;99.90;;;;;;4961765;28;20050;-61
2023/08/09 09:35:17;;;;;;;3.88;2.53;;;21.60;99.90;;;;;;4968513;28;20154;-62
2023/08/09 09:37:51;;;;;;;5.30;2.05;;;21.60;99.90;;;;;;4966370;28;20141;-61
2023/08/09 09:40:32;;;;;;;4.60;2.85;;;21.50;99.90;;;;;;4967490;28;20054;-61
2023/08/09 09:42:59;;;;;;;4.88;2.65;;;21.70;99.90;;;;;;4959780;28;20517;-61
2023/08/09 09:45:27;;;;;;;3.38;2.25;;;21.80;99.90;;;;;;4967289;28;20054;-61
2023/08/09 09:47:54;;;;;;;3.83;2.40;;;21.90;99.90;;;;;;4967964;28;20128;-61
2023/08/09 09:50:25;;;;;;;3.45;2.00;;;22.30;99.90;;;;;;4966843;28;20089;-62
2023/08/09 09:52:51;;;;;;;5.38;2.03;;;22.10;99.90;;;;;;4962699;28;20126;-61
2023/08/09 09:55:25;;;;;;;3.80;2.03;;;22.10;99.90;;;;;;4963413;28;20142;-61
2023/08/09 09:57:54;;;;;;;4.82;2.08;;;22.10;99.90;;;;;;4964694;28;20505;-61
2023/08/09 10:00:21;;;;;;;3.67;2.60;;;21.90;99.90;;;;;;4964620;28;20047;-61
2023/08/09 10:02:49;;;;;;;5.85;4.00;;;21.90;99.90;;;;;;4961074;28;20477;-61
2023/08/09 10:05:23;;;;;;;5.68;2.75;;;21.60;99.90;;;;;;4962761;28;20418;-61
2023/08/09 10:07:50;;;;;;;4.00;3.00;;;21.60;99.90;;;;;;4962179;28;20138;-62
2023/08/09 10:10:17;;;;;;;6.70;3.75;;;21.50;99.90;;;;;;4963114;28;20038;-61
2023/08/09 10:12:54;;;;;;;4.03;2.80;;;21.50;99.90;;;;;;4958958;28;20047;-62
2023/08/09 10:15:27;;;;;;;6.28;4.00;;;21.70;99.90;;;;;;4960881;28;21684;-61
2023/08/09 10:18:17;;;;;;;18.25;16.65;;;21.90;99.90;;;;;;4956492;28;20054;-61
2023/08/09 10:20:47;;;;;;;13.10;11.82;;;21.90;99.90;;;;;;4958126;28;20126;-61
2023/08/09 10:23:24;;;;;;;17.92;16.25;;;21.80;99.90;;;;;;4963649;28;20122;-61
2023/08/09 10:25:51;;;;;;;25.30;23.45;;;21.70;99.90;;;;;;4967883;28;20144;-61
2023/08/09 10:28:18;;;;;;;27.13;25.15;;;21.90;99.90;;;;;;4979672;28;20047;-60
2023/08/09 10:30:49;;;;;;;27.92;25.90;;;21.70;99.90;;;;;;4963477;28;20571;-60
2023/08/09 10:33:18;;;;;;;31.67;29.23;;;22.10;99.90;;;;;;4958828;28;20036;-61
2023/08/09 10:35:54;;;;;;;41.60;38.35;;;22.00;99.90;;;;;;4963695;28;20400;-60
2023/08/09 10:38:25;;;;;;;40.65;37.67;;;21.90;99.90;;;;;;4962206;28;20457;-61
2023/08/09 10:40:52;;;;;;;14.32;13.05;;;22.00;99.90;;;;;;4969825;28;20053;-61
2023/08/09 10:43:22;;;;;;;13.55;9.18;;;21.70;99.90;;;;;;4964461;28;20688;-61
2023/08/09 10:45:49;;;;;;;16.45;14.13;;;21.60;99.90;;;;;;4959916;28;20591;-61
2023/08/09 10:48:25;;;;;;;13.32;8.35;;;21.50;99.90;;;;;;4964317;28;20039;-61
2023/08/09 10:51:17;;;;;;;15.40;8.38;;;21.70;99.90;;;;;;4959167;28;20054;-61
2023/08/09 10:54:03;;;;;;;8.95;5.70;;;21.70;99.90;;;;;;4962663;28;20039;-60
2023/08/09 10:56:43;;;;;;;9.68;5.10;;;21.40;99.90;;;;;;4961826;28;20520;-61
2023/08/09 10:59:14;;;;;;;5.90;3.35;;;21.20;99.90;;;;;;4965145;28;20590;-61
2023/08/09 11:01:43;;;;;;;14.18;7.63;;;20.90;99.90;;;;;;4965732;28;20043;-61
2023/08/09 11:04:12;;;;;;;9.32;6.90;;;20.70;99.90;;;;;;4962577;28;20457;-61
2023/08/09 11:06:44;;;;;;;9.18;7.68;;;20.80;99.90;;;;;;4962429;28;20093;-61
2023/08/09 11:09:18;;;;;;;16.63;15.02;;;20.90;99.90;;;;;;4964022;28;20121;-61
2023/08/09 11:11:46;;;;;;;30.63;27.85;;;21.00;99.90;;;;;;4961342;28;20050;-61
2023/08/09 11:14:14;;;;;;;25.92;23.63;;;20.90;99.90;;;;;;4962323;28;20042;-61
2023/08/09 11:16:40;;;;;;;14.80;13.27;;;21.00;99.90;;;;;;4962706;28;20043;-61
2023/08/09 11:19:09;;;;;;;22.60;20.60;;;20.90;99.90;;;;;;4962905;28;20086;-61
2023/08/09 11:21:41;;;;;;;13.55;11.93;;;21.00;99.90;;;;;;4966125;28;20156;-61
2023/08/09 11:24:11;;;;;;;15.88;14.02;;;20.90;99.90;;;;;;4963717;28;20051;-61
2023/08/09 11:26:38;;;;;;;22.08;19.90;;;20.90;99.90;;;;;;4963087;28;20042;-61
2023/08/09 11:29:05;;;;;;;13.63;9.75;;;21.00;99.90;;;;;;4961115;28;20030;-60
2023/08/09 11:31:42;;;;;;;16.88;12.93;;;21.00;99.90;;;;;;4964221;28;20827;-61
2023/08/09 11:34:10;;;;;;;18.52;14.13;;;20.90;99.90;;;;;;4962448;28;20042;-61
2023/08/09 11:36:36;;;;;;;13.55;9.27;;;20.70;99.90;;;;;;4961828;28;20082;-60
2023/08/09 11:39:01;;;;;;;10.65;7.05;;;20.60;99.90;;;;;;4962210;28;20142;-61
2023/08/09 11:41:40;;;;;;;9.43;8.48;;;20.50;99.90;;;;;;4962670;28;20046;-60
2023/08/09 11:44:06;;;;;;;14.60;8.60;;;20.50;99.90;;;;;;4962011;28;20039;-60
2023/08/09 11:46:32;;;;;;;18.15;14.05;;;20.50;99.90;;;;;;4961466;28;20093;-61
2023/08/09 11:49:03;;;;;;;16.08;14.38;;;20.40;99.90;;;;;;4963174;28;20071;-61
2023/08/09 11:51:33;;;;;;;14.68;12.15;;;20.50;99.90;;;;;;4961872;28;20462;-61
2023/08/09 11:53:59;;;;;;;16.27;14.75;;;20.60;99.90;;;;;;4960626;28;20050;-61
2023/08/09 11:56:29;;;;;;;21.05;17.35;;;20.50;99.90;;;;;;4962784;28;20512;-60
2023/08/09 11:58:58;;;;;;;19.58;17.75;;;20.40;99.90;;;;;;4959303;28;20454;-61
2023/08/09 12:01:27;;;;;;;23.65;21.23;;;20.30;99.90;;;;;;4963459;28;20042;-61
2023/08/09 12:03:55;;;;;;;16.30;14.65;;;20.30;99.90;;;;;;4958140;28;20094;-60
2023/08/09 12:06:42;;;;;;;23.90;21.65;;;20.40;99.90;;;;;;4962336;28;20419;-60
2023/08/09 12:09:30;;;;;;;18.02;13.52;;;20.50;99.90;;;;;;4964245;28;20116;-60
2023/08/09 12:12:02;;;;;;;16.15;13.75;;;20.50;99.90;;;;;;4962610;28;20316;-60
2023/08/09 12:14:28;;;;;;;23.50;19.73;;;20.60;99.90;;;;;;4961560;28;20047;-61
2023/08/09 12:16:53;;;;;;;14.68;11.02;;;20.50;99.90;;;;;;4960711;28;20039;-60
2023/08/09 12:19:19;;;;;;;19.10;13.50;;;20.60;99.90;;;;;;4965304;28;20181;-61
2023/08/09 12:21:45;;;;;;;18.00;12.93;;;20.50;99.90;;;;;;4964348;28;20051;-60
2023/08/09 12:24:11;;;;;;;19.17;14.70;;;20.50;99.90;;;;;;4962083;28;20808;-60
2023/08/09 12:26:37;;;;;;;14.82;13.13;;;20.60;99.90;;;;;;4964518;28;20049;-64
2023/08/09 12:29:03;;;;;;;23.60;18.58;;;20.70;99.90;;;;;;4978272;28;20043;-63
2023/08/09 12:31:29;;;;;;;20.55;18.45;;;20.80;99.90;;;;;;4963565;28;20058;-64